Time;durP1;ratioP1;P1;durP2;ratioP2;P2;SDS_P1;SDS_P2;PMS_P1;PMS_P2;Temp;Humidity;BMP_temperature;BMP_pressure;BME280_temperature;BME280_humidity;BME280_pressure;Samples;Min_cycle;Max_cycle;Signal;HPM_P1;HPM_P2
2022/03/20 00:02:20;;;;;;;39.20;32.42;;;4.20;99.90;;;;;;4976607;28;20026;-74
2022/03/20 00:04:45;;;;;;;39.53;33.15;;;4.20;99.90;;;;;;4975561;28;20034;-74
2022/03/20 00:07:11;;;;;;;37.53;31.75;;;4.10;99.90;;;;;;4974170;28;20037;-74
2022/03/20 00:09:38;;;;;;;39.38;32.25;;;4.10;99.90;;;;;;4981598;28;20022;-74
2022/03/20 00:12:04;;;;;;;40.65;32.03;;;4.40;99.90;;;;;;4976644;28;20023;-74
2022/03/20 00:14:30;;;;;;;38.20;32.22;;;4.50;99.90;;;;;;4973664;28;20086;-74
2022/03/20 00:16:55;;;;;;;40.67;32.00;;;4.40;99.90;;;;;;4975161;28;20027;-73
2022/03/20 00:19:21;;;;;;;46.20;35.72;;;4.40;99.90;;;;;;4975143;28;20053;-73
2022/03/20 00:21:46;;;;;;;39.17;33.35;;;4.30;99.90;;;;;;4973482;28;20026;-74
2022/03/20 00:24:12;;;;;;;42.47;35.58;;;4.60;99.90;;;;;;4974780;28;20035;-74
2022/03/20 00:26:39;;;;;;;42.53;34.88;;;4.30;99.90;;;;;;4975026;28;20027;-74
2022/03/20 00:29:06;;;;;;;44.10;35.42;;;4.50;99.90;;;;;;4973610;28;20394;-73
2022/03/20 00:31:33;;;;;;;42.70;35.22;;;4.50;99.90;;;;;;4973496;28;20034;-74
2022/03/20 00:33:59;;;;;;;42.80;35.17;;;4.40;99.90;;;;;;4973478;28;20037;-73
2022/03/20 00:36:25;;;;;;;39.88;34.72;;;4.40;99.90;;;;;;4975470;28;20026;-73
2022/03/20 00:38:50;;;;;;;41.60;34.58;;;4.50;99.90;;;;;;4976875;28;20034;-73
2022/03/20 00:41:16;;;;;;;47.50;36.83;;;4.70;99.90;;;;;;4975709;28;20031;-74
2022/03/20 00:43:41;;;;;;;43.03;36.42;;;4.50;99.90;;;;;;4974397;28;20122;-73
2022/03/20 00:46:09;;;;;;;45.50;37.08;;;4.40;99.90;;;;;;4975541;28;20027;-74
2022/03/20 00:48:35;;;;;;;43.63;37.45;;;4.20;99.90;;;;;;4974609;28;20539;-73
2022/03/20 00:51:03;;;;;;;45.88;36.15;;;4.20;99.90;;;;;;4974343;28;20065;-74
2022/03/20 00:53:30;;;;;;;46.25;37.17;;;4.10;99.90;;;;;;4974512;28;20397;-74
2022/03/20 00:55:56;;;;;;;42.45;36.97;;;4.00;99.90;;;;;;4978763;28;20161;-74
2022/03/20 00:58:21;;;;;;;45.17;37.78;;;4.30;99.90;;;;;;4972937;28;20118;-74
2022/03/20 01:00:47;;;;;;;44.17;37.83;;;4.10;99.90;;;;;;4974265;28;20085;-74
2022/03/20 01:03:12;;;;;;;46.95;40.00;;;4.20;99.90;;;;;;4974095;28;20027;-74
2022/03/20 01:05:38;;;;;;;46.53;38.22;;;4.30;99.90;;;;;;4972975;28;20030;-71
2022/03/20 01:08:04;;;;;;;46.30;37.70;;;4.20;99.90;;;;;;4973046;28;20027;-73
2022/03/20 01:10:29;;;;;;;47.55;39.78;;;4.10;99.90;;;;;;4987122;28;20710;-73
2022/03/20 01:12:56;;;;;;;49.10;38.88;;;4.00;99.90;;;;;;4973196;28;20023;-73
2022/03/20 01:15:21;;;;;;;50.75;40.20;;;4.10;99.90;;;;;;4974462;28;20432;-73
2022/03/20 01:17:47;;;;;;;49.28;40.47;;;4.20;99.90;;;;;;4987012;28;20078;-73
2022/03/20 01:20:13;;;;;;;48.03;38.53;;;4.20;99.90;;;;;;4986744;28;20026;-73
2022/03/20 01:22:40;;;;;;;48.90;39.33;;;4.10;99.90;;;;;;4987127;28;20385;-73
2022/03/20 01:25:07;;;;;;;48.50;40.63;;;4.00;99.90;;;;;;4973271;28;20030;-74
2022/03/20 01:27:33;;;;;;;49.42;41.13;;;3.90;99.90;;;;;;4972676;28;20034;-74
2022/03/20 01:29:59;;;;;;;50.55;39.95;;;4.10;99.90;;;;;;4973967;28;20031;-73
2022/03/20 01:32:26;;;;;;;46.20;39.45;;;4.10;99.90;;;;;;4978878;28;20064;-74
2022/03/20 01:37:19;;;;;;;49.83;41.63;;;4.10;99.90;;;;;;4971399;28;20067;-75
2022/03/20 01:39:45;;;;;;;48.33;40.53;;;3.90;99.90;;;;;;4974743;28;20031;-74
2022/03/20 01:42:11;;;;;;;48.13;41.83;;;4.00;99.90;;;;;;4970506;28;20019;-75
2022/03/20 01:44:37;;;;;;;47.30;39.90;;;4.00;99.90;;;;;;4964384;28;20054;-74
2022/03/20 01:47:08;;;;;;;49.05;40.10;;;3.80;99.90;;;;;;4978055;28;20035;-74
2022/03/20 01:49:34;;;;;;;50.00;40.55;;;4.00;99.90;;;;;;4974158;28;20019;-74
2022/03/20 01:52:13;;;;;;;48.40;40.33;;;4.00;99.90;;;;;;4972884;28;20023;-74
2022/03/20 01:54:44;;;;;;;51.30;40.70;;;4.20;99.90;;;;;;4974352;28;20029;-73
2022/03/20 01:57:16;;;;;;;51.92;42.08;;;4.10;99.90;;;;;;4974179;28;20030;-73
2022/03/20 01:59:43;;;;;;;50.22;39.92;;;4.00;99.90;;;;;;4988650;28;20031;-72
2022/03/20 02:02:08;;;;;;;50.63;41.47;;;3.90;99.90;;;;;;4973467;28;20082;-74
2022/03/20 02:04:35;;;;;;;48.88;42.03;;;4.00;99.90;;;;;;4973612;28;20031;-72
2022/03/20 02:07:02;;;;;;;49.58;41.28;;;4.20;99.90;;;;;;4973422;28;20026;-72
2022/03/20 02:09:28;;;;;;;51.35;40.97;;;4.30;99.90;;;;;;4973545;28;20038;-73
2022/03/20 02:11:55;;;;;;;48.80;40.50;;;4.20;99.90;;;;;;4988680;28;20023;-73
2022/03/20 02:14:21;;;;;;;50.00;41.58;;;4.10;99.90;;;;;;4973693;28;20053;-72
2022/03/20 02:16:47;;;;;;;51.00;41.25;;;4.20;99.90;;;;;;4962499;28;20023;-73
2022/03/20 02:19:13;;;;;;;48.70;41.13;;;4.20;99.90;;;;;;4972000;28;20491;-73
2022/03/20 02:21:40;;;;;;;51.95;41.42;;;4.20;99.90;;;;;;4973107;28;20480;-73
2022/03/20 02:24:30;;;;;;;48.10;39.25;;;4.20;99.90;;;;;;4972049;28;20027;-72
2022/03/20 02:27:04;;;;;;;48.53;40.63;;;4.20;99.90;;;;;;4973125;28;20034;-72
2022/03/20 02:29:30;;;;;;;44.72;39.10;;;4.20;99.90;;;;;;4973179;28;20026;-73
2022/03/20 02:31:57;;;;;;;47.97;40.90;;;4.10;99.90;;;;;;4973083;28;20035;-73
2022/03/20 02:34:23;;;;;;;48.05;40.42;;;4.10;99.90;;;;;;4973376;28;20030;-72
2022/03/20 02:36:48;;;;;;;51.10;41.30;;;4.10;99.90;;;;;;4972953;28;20042;-73
2022/03/20 02:39:14;;;;;;;47.70;39.78;;;4.10;99.90;;;;;;4973179;28;20488;-72
2022/03/20 02:41:39;;;;;;;50.15;39.13;;;4.10;99.90;;;;;;4973000;28;20034;-73
2022/03/20 02:44:05;;;;;;;51.83;41.53;;;4.10;99.90;;;;;;4973301;28;20042;-72
2022/03/20 02:46:32;;;;;;;48.17;39.97;;;4.00;99.90;;;;;;4973084;28;20027;-74
2022/03/20 02:48:58;;;;;;;49.53;40.88;;;4.00;99.90;;;;;;4988136;28;20485;-73
2022/03/20 02:51:24;;;;;;;50.85;41.25;;;4.00;99.90;;;;;;4987763;28;20055;-74
2022/03/20 02:53:50;;;;;;;49.40;39.90;;;4.10;99.90;;;;;;4973044;28;20034;-74
2022/03/20 02:56:15;;;;;;;52.05;41.53;;;3.90;99.90;;;;;;4973057;28;20385;-72
2022/03/20 02:58:41;;;;;;;49.08;40.53;;;4.00;99.90;;;;;;4973132;28;20046;-73
2022/03/20 03:01:06;;;;;;;48.33;39.60;;;4.10;99.90;;;;;;4958105;28;20059;-73
2022/03/20 03:03:32;;;;;;;46.42;38.67;;;4.00;99.90;;;;;;4954160;28;20035;-73
2022/03/20 03:05:58;;;;;;;48.72;40.95;;;3.90;99.90;;;;;;4968101;28;20062;-74
2022/03/20 03:11:09;;;;;;;50.25;41.17;;;3.90;99.90;;;;;;4973332;28;20037;-76
2022/03/20 03:13:37;;;;;;;49.00;40.28;;;3.90;99.90;;;;;;4973375;28;20428;-76
2022/03/20 03:16:13;;;;;;;49.08;39.47;;;3.90;99.90;;;;;;4986390;28;20031;-75
2022/03/20 03:18:47;;;;;;;47.90;40.08;;;3.80;99.90;;;;;;4972959;28;20668;-74
2022/03/20 03:21:15;;;;;;;47.67;40.38;;;3.90;99.90;;;;;;4973005;28;20054;-76
2022/03/20 03:23:40;;;;;;;46.95;39.30;;;3.90;99.90;;;;;;4971849;28;20031;-72
2022/03/20 03:26:07;;;;;;;49.72;41.38;;;3.90;99.90;;;;;;4972972;28;20027;-76
2022/03/20 03:28:36;;;;;;;45.58;38.85;;;3.90;99.90;;;;;;4971969;28;20117;-72
2022/03/20 03:31:07;;;;;;;50.35;39.33;;;3.90;99.90;;;;;;4972869;28;20099;-74
2022/03/20 03:33:34;;;;;;;47.10;39.75;;;3.80;99.90;;;;;;4972894;28;20109;-73
2022/03/20 03:36:01;;;;;;;48.33;39.47;;;4.00;99.90;;;;;;4971606;28;20039;-74
2022/03/20 03:38:34;;;;;;;48.67;39.95;;;3.80;99.90;;;;;;4971847;28;20026;-74
2022/03/20 03:40:59;;;;;;;48.28;39.53;;;3.80;99.90;;;;;;4972777;28;20533;-75
2022/03/20 03:43:26;;;;;;;46.83;39.63;;;3.80;99.90;;;;;;4972837;28;20031;-73
2022/03/20 03:45:55;;;;;;;48.83;39.72;;;3.80;99.90;;;;;;4977577;28;20039;-73
2022/03/20 03:48:21;;;;;;;48.95;38.90;;;3.70;99.90;;;;;;4954051;28;20019;-74
2022/03/20 03:50:48;;;;;;;49.90;39.80;;;3.80;99.90;;;;;;4956932;28;20019;-73
2022/03/20 03:53:14;;;;;;;50.92;40.00;;;3.70;99.90;;;;;;4988958;28;20389;-73
2022/03/20 03:55:43;;;;;;;47.17;39.05;;;3.60;99.90;;;;;;4976115;28;20102;-73
2022/03/20 03:58:09;;;;;;;46.78;38.72;;;3.60;99.90;;;;;;4974868;28;20038;-73
2022/03/20 04:00:35;;;;;;;49.45;39.65;;;3.60;99.90;;;;;;4974512;28;20031;-72
2022/03/20 04:03:01;;;;;;;49.33;40.58;;;3.60;99.90;;;;;;4975960;28;20053;-73
2022/03/20 04:05:28;;;;;;;47.30;39.15;;;3.60;99.90;;;;;;4976084;28;20511;-73
2022/03/20 04:07:54;;;;;;;46.70;39.47;;;3.60;99.90;;;;;;4975789;28;20029;-72
2022/03/20 04:10:20;;;;;;;48.25;39.10;;;3.60;99.90;;;;;;4975703;28;20034;-73
2022/03/20 04:12:46;;;;;;;44.75;37.65;;;3.60;99.90;;;;;;4976015;28;20438;-75
2022/03/20 04:15:14;;;;;;;47.63;39.78;;;3.50;99.90;;;;;;5002318;28;20057;-76
2022/03/20 04:17:42;;;;;;;46.80;38.47;;;3.50;99.90;;;;;;4992068;28;20027;-76
2022/03/20 04:20:08;;;;;;;45.40;38.33;;;3.50;99.90;;;;;;4974479;28;20080;-73
2022/03/20 04:22:36;;;;;;;48.00;39.88;;;3.40;99.90;;;;;;4974001;28;20035;-74
2022/03/20 04:25:02;;;;;;;46.65;39.35;;;3.40;99.90;;;;;;4974272;28;20033;-74
2022/03/20 04:27:29;;;;;;;46.00;37.95;;;3.40;99.90;;;;;;4974302;28;20050;-74
2022/03/20 04:29:55;;;;;;;48.20;38.85;;;3.40;99.90;;;;;;4974411;28;20511;-72
2022/03/20 04:32:21;;;;;;;49.30;39.70;;;3.40;99.90;;;;;;4975325;28;20035;-73
2022/03/20 04:34:47;;;;;;;46.28;38.47;;;3.40;99.90;;;;;;4963967;28;20023;-73
2022/03/20 04:37:13;;;;;;;49.65;38.75;;;3.40;99.90;;;;;;4974289;28;20042;-72
2022/03/20 04:39:39;;;;;;;46.28;37.88;;;3.40;99.90;;;;;;4975526;28;20027;-72
2022/03/20 04:42:05;;;;;;;48.15;39.17;;;3.50;99.90;;;;;;4974820;28;20038;-73
2022/03/20 04:44:32;;;;;;;49.83;38.90;;;3.50;99.90;;;;;;4973796;28;20031;-73
2022/03/20 04:46:58;;;;;;;45.40;38.42;;;3.60;99.90;;;;;;4974067;28;20043;-73
2022/03/20 05:00:24;;;;;;;47.30;39.15;;;3.20;99.90;;;;;;4964535;28;20046;-73
2022/03/20 05:02:50;;;;;;;47.40;37.85;;;3.30;99.90;;;;;;4955338;28;20039;-72
2022/03/20 05:05:17;;;;;;;49.83;39.95;;;3.20;99.90;;;;;;4955303;29;20035;-73
2022/03/20 05:07:43;;;;;;;44.28;38.28;;;3.30;99.90;;;;;;4955105;28;20026;-72
2022/03/20 05:15:37;;;;;;;48.50;38.45;;;3.30;99.90;;;;;;4969707;28;20033;-71
2022/03/20 05:18:03;;;;;;;47.22;38.53;;;3.20;99.90;;;;;;4974219;28;20452;-72
2022/03/20 05:20:29;;;;;;;47.00;38.25;;;3.20;99.90;;;;;;4973902;28;20511;-72
2022/03/20 05:22:55;;;;;;;43.30;37.70;;;3.20;99.90;;;;;;4973915;28;20066;-72
2022/03/20 05:25:20;;;;;;;49.38;37.92;;;3.30;99.90;;;;;;4973905;28;20102;-72
2022/03/20 05:27:46;;;;;;;46.70;38.58;;;3.30;99.90;;;;;;4972665;28;20049;-72
2022/03/20 05:30:12;;;;;;;42.80;36.58;;;3.20;99.90;;;;;;4960937;28;20046;-72
2022/03/20 05:32:39;;;;;;;43.15;36.85;;;3.30;99.90;;;;;;4973762;28;20038;-72
2022/03/20 05:35:08;;;;;;;44.05;37.50;;;3.20;99.90;;;;;;4973717;28;20109;-73
2022/03/20 05:37:34;;;;;;;46.03;37.78;;;3.20;99.90;;;;;;4975113;28;20034;-74
2022/03/20 05:39:59;;;;;;;47.40;39.00;;;3.20;99.90;;;;;;4973815;28;20400;-73
2022/03/20 05:42:25;;;;;;;44.38;38.13;;;3.20;99.90;;;;;;4973629;28;20140;-72
2022/03/20 05:44:51;;;;;;;44.15;37.20;;;3.20;99.90;;;;;;4973645;28;20031;-73
2022/03/20 05:47:17;;;;;;;47.20;37.88;;;3.30;99.90;;;;;;4988610;28;20038;-74
2022/03/20 05:49:42;;;;;;;44.13;38.15;;;3.30;99.90;;;;;;4973672;28;20060;-73
2022/03/20 05:52:08;;;;;;;44.25;37.00;;;3.20;99.90;;;;;;4973431;28;20074;-73
2022/03/20 05:54:34;;;;;;;45.03;37.60;;;3.30;99.90;;;;;;4988515;28;20026;-72
2022/03/20 05:59:44;;;;;;;45.53;36.00;;;3.60;99.90;;;;;;4973799;28;20416;-74
2022/03/20 06:02:10;;;;;;;42.38;35.55;;;3.40;99.90;;;;;;4973328;28;20027;-74
2022/03/20 06:04:37;;;;;;;44.67;37.85;;;3.50;99.90;;;;;;4973473;28;20027;-74
2022/03/20 06:07:03;;;;;;;45.83;36.72;;;3.60;99.90;;;;;;4973540;28;20090;-74
2022/03/20 06:09:30;;;;;;;40.70;35.42;;;3.60;99.90;;;;;;4973597;28;20109;-74
2022/03/20 06:11:56;;;;;;;42.60;35.65;;;3.60;99.90;;;;;;4981267;28;20042;-74
2022/03/20 06:14:22;;;;;;;43.95;36.30;;;3.80;99.90;;;;;;4988221;28;20025;-74
2022/03/20 06:16:48;;;;;;;41.80;34.92;;;3.80;99.90;;;;;;4972001;28;20031;-74
2022/03/20 06:19:17;;;;;;;43.03;34.70;;;3.80;99.90;;;;;;4971955;28;20038;-74
2022/03/20 06:21:43;;;;;;;40.30;34.08;;;3.90;99.90;;;;;;4973552;28;20030;-74
2022/03/20 06:24:09;;;;;;;43.92;35.13;;;3.90;99.90;;;;;;4960234;28;20157;-74
2022/03/20 06:26:35;;;;;;;38.75;33.75;;;3.90;99.90;;;;;;4972977;28;20113;-73
2022/03/20 06:29:05;;;;;;;42.25;35.67;;;4.10;99.90;;;;;;4973054;28;20062;-75
2022/03/20 06:31:31;;;;;;;44.85;36.00;;;4.10;99.90;;;;;;4972861;28;20497;-73
2022/03/20 06:33:57;;;;;;;41.33;33.85;;;4.20;99.90;;;;;;4972991;28;20037;-74
2022/03/20 06:36:23;;;;;;;46.60;34.45;;;4.10;99.90;;;;;;4972917;28;20027;-73
2022/03/20 06:38:49;;;;;;;42.97;34.78;;;4.10;99.90;;;;;;4971535;28;20485;-73
2022/03/20 06:41:14;;;;;;;40.97;34.58;;;4.20;99.90;;;;;;4975010;28;20027;-73
2022/03/20 06:43:40;;;;;;;43.80;34.53;;;4.20;99.90;;;;;;4952407;29;20143;-73
2022/03/20 06:46:07;;;;;;;40.78;32.33;;;4.30;99.90;;;;;;4952145;28;20027;-73
2022/03/20 06:48:33;;;;;;;39.15;32.65;;;4.40;99.90;;;;;;4968427;28;20023;-74
2022/03/20 06:50:59;;;;;;;40.72;34.00;;;4.40;99.90;;;;;;4953457;28;20584;-72
2022/03/20 06:53:25;;;;;;;41.05;33.75;;;4.40;99.90;;;;;;4958673;28;20042;-72
2022/03/20 06:55:52;;;;;;;39.17;32.25;;;4.50;99.90;;;;;;4971506;28;20059;-72
2022/03/20 06:58:18;;;;;;;42.00;33.53;;;4.50;99.90;;;;;;4971546;28;20026;-73
2022/03/20 07:00:46;;;;;;;39.17;32.95;;;4.60;99.90;;;;;;4972796;28;20042;-73
2022/03/20 07:03:12;;;;;;;39.47;32.55;;;4.60;99.90;;;;;;4987629;28;20049;-72
2022/03/20 07:05:37;;;;;;;37.03;30.75;;;4.70;99.90;;;;;;4987663;28;20042;-73
2022/03/20 07:08:05;;;;;;;35.38;30.77;;;4.70;99.90;;;;;;4973104;28;20440;-73
2022/03/20 07:10:31;;;;;;;37.88;32.25;;;4.80;99.90;;;;;;4984518;28;20034;-74
2022/03/20 07:15:48;;;;;;;39.97;30.65;;;4.90;99.90;;;;;;4985588;28;20070;-73
2022/03/20 07:18:17;;;;;;;37.78;30.90;;;5.00;99.90;;;;;;4971418;28;20671;-73
2022/03/20 07:20:45;;;;;;;39.28;30.40;;;5.10;99.90;;;;;;4971054;28;20054;-73
2022/03/20 07:23:12;;;;;;;35.47;29.88;;;5.10;99.90;;;;;;4972110;28;20082;-73
2022/03/20 07:31:08;;;;;;;34.92;30.10;;;5.40;99.90;;;;;;4976242;28;20077;-74
2022/03/20 07:33:34;;;;;;;35.60;30.23;;;5.50;99.90;;;;;;4976070;28;20480;-73
2022/03/20 07:36:00;;;;;;;35.63;30.00;;;5.50;99.90;;;;;;4975851;28;20034;-73
2022/03/20 07:38:27;;;;;;;37.30;29.90;;;5.40;99.90;;;;;;4991005;28;20031;-73
2022/03/20 07:40:52;;;;;;;35.88;29.42;;;5.60;99.90;;;;;;4975748;28;20492;-72
2022/03/20 07:43:19;;;;;;;36.95;28.30;;;5.70;99.90;;;;;;4990654;28;20039;-73
2022/03/20 07:45:45;;;;;;;37.38;29.13;;;5.80;99.90;;;;;;4975865;28;20030;-72
2022/03/20 07:48:11;;;;;;;32.05;28.55;;;5.90;99.90;;;;;;4990723;28;20046;-73
2022/03/20 07:50:36;;;;;;;36.15;28.33;;;6.10;99.90;;;;;;4990475;28;20654;-73
2022/03/20 07:53:04;;;;;;;33.45;27.17;;;6.10;99.90;;;;;;4975806;28;20109;-74
2022/03/20 07:55:29;;;;;;;33.72;27.92;;;6.10;99.90;;;;;;4990640;28;20027;-72
2022/03/20 07:57:56;;;;;;;36.65;28.48;;;6.10;99.90;;;;;;4974292;28;20386;-73
2022/03/20 08:00:22;;;;;;;33.33;28.15;;;6.20;99.90;;;;;;4974813;28;20388;-73
2022/03/20 08:02:53;;;;;;;35.63;28.85;;;6.30;99.90;;;;;;4975431;28;20023;-73
2022/03/20 08:05:20;;;;;;;31.88;26.70;;;6.30;99.90;;;;;;4965475;28;20026;-73
2022/03/20 08:07:46;;;;;;;33.05;27.10;;;6.50;99.90;;;;;;4974046;28;20027;-73
2022/03/20 08:10:13;;;;;;;33.63;27.73;;;6.50;99.90;;;;;;4971847;28;20027;-73
2022/03/20 08:12:39;;;;;;;32.28;27.20;;;6.60;99.90;;;;;;4971716;28;20041;-74
2022/03/20 08:15:06;;;;;;;35.45;28.23;;;6.60;99.90;;;;;;4974512;28;20054;-74
2022/03/20 08:17:41;;;;;;;34.05;26.27;;;6.70;99.90;;;;;;4990007;28;20027;-73
2022/03/20 08:20:07;;;;;;;33.35;27.75;;;6.70;99.90;;;;;;4973936;28;20023;-73
2022/03/20 08:22:33;;;;;;;32.08;27.42;;;6.80;99.90;;;;;;4974898;28;20034;-74
2022/03/20 08:24:58;;;;;;;32.28;26.67;;;6.90;99.90;;;;;;4962926;28;20038;-73
2022/03/20 08:27:24;;;;;;;33.00;27.55;;;6.90;99.90;;;;;;4972685;28;20354;-74
2022/03/20 08:29:50;;;;;;;33.22;26.33;;;7.00;99.90;;;;;;4973748;28;20508;-73
2022/03/20 08:32:16;;;;;;;30.98;25.95;;;7.10;99.90;;;;;;4974002;28;20031;-74
2022/03/20 08:34:41;;;;;;;30.90;25.42;;;7.10;99.90;;;;;;4973898;28;20030;-74
2022/03/20 08:37:07;;;;;;;31.42;25.85;;;7.30;99.90;;;;;;4973860;28;20050;-73
2022/03/20 08:39:32;;;;;;;31.05;25.65;;;7.30;99.90;;;;;;4989781;28;20359;-74
2022/03/20 08:41:58;;;;;;;31.63;25.73;;;7.30;99.90;;;;;;4974431;28;20019;-73
2022/03/20 08:44:26;;;;;;;31.08;25.27;;;7.40;99.90;;;;;;4974808;28;20105;-73
2022/03/20 08:46:52;;;;;;;31.88;25.35;;;7.40;99.90;;;;;;4973317;28;20038;-73
2022/03/20 08:49:17;;;;;;;32.75;26.80;;;7.50;99.90;;;;;;4974791;28;20077;-73
2022/03/20 08:51:43;;;;;;;31.98;25.85;;;7.40;99.90;;;;;;4974378;28;20054;-73
2022/03/20 08:54:09;;;;;;;31.95;25.85;;;7.40;99.90;;;;;;4974496;28;20031;-73
2022/03/20 08:56:34;;;;;;;32.13;25.10;;;7.50;99.90;;;;;;4974469;28;20034;-73
2022/03/20 08:59:00;;;;;;;32.22;26.00;;;7.80;99.90;;;;;;4973215;28;20027;-73
2022/03/20 09:01:26;;;;;;;32.22;25.90;;;7.70;99.90;;;;;;4972280;28;20429;-74
2022/03/20 09:03:52;;;;;;;30.40;25.00;;;7.70;99.90;;;;;;4973874;28;20396;-74
2022/03/20 09:06:22;;;;;;;30.17;25.05;;;7.70;99.90;;;;;;5005699;22;20038;-75
2022/03/20 09:08:49;;;;;;;31.20;24.92;;;7.90;99.90;;;;;;4992653;28;20022;-74
2022/03/20 09:11:15;;;;;;;28.80;23.98;;;7.90;99.90;;;;;;4993225;28;20022;-74
2022/03/20 09:13:41;;;;;;;29.80;24.00;;;7.90;99.90;;;;;;4993556;28;20495;-74
2022/03/20 09:19:00;;;;;;;30.17;24.10;;;8.00;99.90;;;;;;4978153;28;20081;-75
2022/03/20 09:21:33;;;;;;;29.83;24.23;;;8.10;99.90;;;;;;4990968;28;20042;-75
2022/03/20 09:24:00;;;;;;;30.08;23.38;;;8.20;99.90;;;;;;4981688;28;20131;-75
2022/03/20 09:26:26;;;;;;;28.45;23.80;;;8.30;99.90;;;;;;4992612;28;20376;-75
2022/03/20 09:28:52;;;;;;;29.77;23.33;;;8.40;99.90;;;;;;4986415;28;20058;-75
2022/03/20 09:31:19;;;;;;;26.10;22.90;;;8.50;99.90;;;;;;4974063;28;20443;-75
2022/03/20 09:33:45;;;;;;;28.23;23.60;;;8.60;99.90;;;;;;4973471;28;20078;-75
2022/03/20 09:36:11;;;;;;;29.52;23.88;;;8.50;99.90;;;;;;4976579;28;20027;-75
2022/03/20 09:38:37;;;;;;;28.92;23.25;;;8.70;99.90;;;;;;4989682;28;20026;-74
2022/03/20 09:41:07;;;;;;;28.70;23.77;;;8.60;99.90;;;;;;4992786;28;20500;-74
2022/03/20 09:43:34;;;;;;;26.92;22.83;;;8.70;99.90;;;;;;4993005;28;20105;-74
2022/03/20 09:46:00;;;;;;;28.15;22.70;;;8.70;99.90;;;;;;4980787;28;20058;-74
2022/03/20 09:48:30;;;;;;;26.77;22.38;;;8.80;99.90;;;;;;4971966;28;20027;-74
2022/03/20 09:50:58;;;;;;;27.30;23.00;;;8.90;99.90;;;;;;4973440;28;20037;-74
2022/03/20 09:53:24;;;;;;;27.15;22.13;;;8.90;99.90;;;;;;4972099;28;20026;-74
2022/03/20 09:55:50;;;;;;;29.65;22.92;;;9.10;99.90;;;;;;4984481;28;20034;-74
2022/03/20 09:58:16;;;;;;;27.75;22.20;;;9.40;99.90;;;;;;4995420;28;20027;-74
2022/03/20 10:00:41;;;;;;;25.33;21.73;;;9.50;99.90;;;;;;4991222;28;20404;-74
2022/03/20 10:03:18;;;;;;;23.73;20.20;;;9.50;99.90;;;;;;4973394;28;20476;-74
2022/03/20 10:05:44;;;;;;;25.92;21.92;;;9.60;99.90;;;;;;4972971;28;20117;-74
2022/03/20 10:08:17;;;;;;;25.02;20.30;;;9.70;99.90;;;;;;4973229;28;20473;-74
2022/03/20 10:10:43;;;;;;;26.52;20.75;;;9.70;99.90;;;;;;4972890;28;20038;-73
2022/03/20 10:13:12;;;;;;;26.83;21.40;;;9.80;99.90;;;;;;4973099;28;20060;-73
2022/03/20 10:15:40;;;;;;;28.05;22.25;;;9.80;99.90;;;;;;4984460;28;20026;-75
2022/03/20 10:18:18;;;;;;;27.85;20.70;;;9.70;99.90;;;;;;4971551;28;20606;-75
2022/03/20 10:21:00;;;;;;;23.85;19.92;;;9.80;99.90;;;;;;4972653;28;20023;-75
2022/03/20 10:23:36;;;;;;;23.83;19.90;;;9.90;99.90;;;;;;4985657;28;20034;-75
2022/03/20 10:26:03;;;;;;;;;;;10.00;99.90;;;;;;4991655;28;20057;-75
2022/03/20 10:28:52;;;;;;;23.80;20.88;;;10.30;99.90;;;;;;4991056;28;19906;-74
2022/03/20 10:31:20;;;;;;;26.88;19.70;;;10.30;99.90;;;;;;4992168;28;20380;-74
2022/03/20 10:34:00;;;;;;;26.10;21.27;;;10.30;99.90;;;;;;4988023;28;20481;-76
2022/03/20 10:36:25;;;;;;;26.15;20.58;;;10.40;99.90;;;;;;4985763;28;20117;-75
2022/03/20 10:38:51;;;;;;;26.30;20.08;;;10.40;99.90;;;;;;4979195;28;20488;-74
2022/03/20 10:41:28;;;;;;;23.95;19.60;;;10.40;99.90;;;;;;4979724;28;20440;-75
2022/03/20 10:43:55;;;;;;;25.42;20.75;;;10.40;99.90;;;;;;4980017;28;20468;-74
2022/03/20 10:46:29;;;;;;;24.52;19.55;;;10.40;99.90;;;;;;4977895;28;20039;-74
2022/03/20 10:49:00;;;;;;;23.80;19.67;;;10.30;99.90;;;;;;4982480;28;20070;-74
2022/03/20 10:51:40;;;;;;;23.98;19.10;;;10.50;99.90;;;;;;4985527;28;20046;-74
2022/03/20 10:54:11;;;;;;;24.98;20.48;;;10.70;99.90;;;;;;4984043;28;20431;-74
2022/03/20 10:56:58;;;;;;;25.15;20.67;;;10.70;99.90;;;;;;4977964;28;20046;-74
2022/03/20 10:59:25;;;;;;;24.08;20.38;;;10.70;99.90;;;;;;5002615;28;20077;-74
2022/03/20 11:01:51;;;;;;;25.10;19.73;;;10.60;99.90;;;;;;4996418;28;20026;-76
2022/03/20 11:04:21;;;;;;;25.45;20.00;;;10.80;99.90;;;;;;4994485;28;20046;-76
2022/03/20 11:06:50;;;;;;;24.55;19.60;;;10.90;99.90;;;;;;4985803;28;20104;-75
2022/03/20 11:09:16;;;;;;;25.98;19.92;;;11.00;99.90;;;;;;5010434;28;20026;-75
2022/03/20 11:11:53;;;;;;;26.23;20.25;;;11.00;99.90;;;;;;5005980;28;20487;-76
2022/03/20 11:14:20;;;;;;;23.88;19.05;;;11.00;99.90;;;;;;4994790;28;20024;-75
2022/03/20 11:17:01;;;;;;;23.55;19.27;;;11.20;99.90;;;;;;4996080;28;20709;-75
2022/03/20 11:19:29;;;;;;;21.83;19.08;;;11.40;99.70;;;;;;4994548;28;20042;-75
2022/03/20 11:22:06;;;;;;;23.08;18.73;;;11.20;99.20;;;;;;4990623;28;20018;-75
2022/03/20 11:24:33;;;;;;;25.48;19.73;;;11.00;99.20;;;;;;4987430;28;20069;-74
2022/03/20 11:27:04;;;;;;;23.73;19.88;;;11.10;99.60;;;;;;4991422;28;20129;-75
2022/03/20 11:29:35;;;;;;;25.40;18.98;;;11.20;99.30;;;;;;4986069;28;20023;-75
2022/03/20 11:32:01;;;;;;;25.20;19.92;;;11.30;99.50;;;;;;4981154;28;20022;-75
2022/03/20 11:34:29;;;;;;;24.90;19.23;;;11.40;99.70;;;;;;4985785;28;20023;-75
2022/03/20 11:37:11;;;;;;;23.08;18.42;;;11.40;98.80;;;;;;4987664;28;20031;-76
2022/03/20 11:39:39;;;;;;;25.60;19.20;;;11.50;99.20;;;;;;4988157;28;20026;-75
2022/03/20 11:42:27;;;;;;;24.60;19.00;;;11.40;98.50;;;;;;4982253;28;20030;-74
2022/03/20 11:45:13;;;;;;;23.58;19.23;;;11.50;98.90;;;;;;4992918;28;20487;-75
2022/03/20 11:47:40;;;;;;;24.17;19.63;;;11.80;99.70;;;;;;4998649;28;20043;-76
2022/03/20 11:50:20;;;;;;;24.40;18.85;;;11.60;98.80;;;;;;5008129;28;20110;-75
2022/03/20 11:53:02;;;;;;;26.23;18.95;;;11.80;98.90;;;;;;5000440;28;20606;-75
2022/03/20 11:55:29;;;;;;;22.20;18.08;;;11.90;98.50;;;;;;4991266;28;20399;-75
2022/03/20 11:57:55;;;;;;;24.27;18.92;;;11.90;98.30;;;;;;4980678;28;20461;-75
2022/03/20 12:00:26;;;;;;;24.27;19.27;;;12.20;97.40;;;;;;4985442;28;20242;-75
2022/03/20 12:02:55;;;;;;;24.65;18.70;;;12.40;97.00;;;;;;4988928;28;20594;-75
2022/03/20 12:05:20;;;;;;;23.58;17.75;;;12.80;96.70;;;;;;4986521;28;20035;-76
2022/03/20 12:07:58;;;;;;;24.35;17.45;;;13.40;96.40;;;;;;4981588;28;20550;-74
2022/03/20 12:10:55;;;;;;;22.98;17.95;;;13.80;95.70;;;;;;4981213;28;20026;-77
2022/03/20 12:13:27;;;;;;;24.63;18.42;;;14.10;94.80;;;;;;4987401;28;20022;-77
2022/03/20 12:15:55;;;;;;;21.33;17.63;;;14.20;95.00;;;;;;4990634;28;20042;-76
2022/03/20 12:18:20;;;;;;;21.15;16.67;;;14.80;94.70;;;;;;4984935;28;20117;-77
2022/03/20 12:20:51;;;;;;;21.38;17.73;;;15.20;94.00;;;;;;4989484;28;20126;-76
2022/03/20 12:23:40;;;;;;;20.02;17.05;;;15.00;92.00;;;;;;4981844;28;20034;-76
2022/03/20 12:26:26;;;;;;;21.38;17.52;;;15.10;91.90;;;;;;4982698;28;20389;-76
2022/03/20 12:28:52;;;;;;;20.95;17.67;;;15.40;91.90;;;;;;4994344;28;20101;-76
2022/03/20 12:31:26;;;;;;;21.10;17.05;;;15.40;91.00;;;;;;4994231;28;20150;-76
2022/03/20 12:34:17;;;;;;;21.08;17.38;;;15.70;91.00;;;;;;4993104;28;20029;-76
2022/03/20 12:36:42;;;;;;;19.83;16.55;;;15.70;90.20;;;;;;4994177;28;20026;-76
2022/03/20 12:39:10;;;;;;;22.83;17.67;;;16.10;90.90;;;;;;4994193;28;20080;-76
2022/03/20 12:41:37;;;;;;;22.63;17.95;;;16.10;88.80;;;;;;4993864;28;20023;-76
2022/03/20 12:44:09;;;;;;;22.05;18.17;;;16.40;88.30;;;;;;4994272;28;20373;-76
2022/03/20 12:46:40;;;;;;;20.73;16.85;;;16.60;88.70;;;;;;4993996;28;20029;-76
2022/03/20 12:49:15;;;;;;;21.17;17.50;;;16.60;85.90;;;;;;4994221;28;20042;-76
2022/03/20 12:51:41;;;;;;;22.90;17.95;;;16.70;86.40;;;;;;4992409;28;20472;-76
2022/03/20 12:54:15;;;;;;;20.00;16.95;;;16.90;86.00;;;;;;4994145;28;20153;-76
2022/03/20 12:56:54;;;;;;;17.58;15.63;;;17.10;84.10;;;;;;4993880;28;20484;-76
2022/03/20 12:59:21;;;;;;;20.00;16.80;;;17.80;81.70;;;;;;4992651;28;20042;-77
2022/03/20 13:01:47;;;;;;;21.27;16.92;;;17.30;82.40;;;;;;4994110;28;20030;-77
2022/03/20 13:04:14;;;;;;;21.63;16.42;;;17.10;81.90;;;;;;4993705;28;20030;-77
2022/03/20 13:06:40;;;;;;;18.60;16.48;;;17.60;81.10;;;;;;4993528;28;20035;-77
2022/03/20 13:09:13;;;;;;;21.38;17.13;;;17.70;78.90;;;;;;4993760;28;20041;-77
2022/03/20 13:11:48;;;;;;;18.63;16.42;;;17.70;78.90;;;;;;4993702;28;20053;-77
2022/03/20 13:14:15;;;;;;;20.00;16.42;;;17.80;79.40;;;;;;4993666;28;20033;-77
2022/03/20 13:16:52;;;;;;;19.83;17.05;;;18.80;77.50;;;;;;4981698;28;20074;-76